sensor_id;sensor_type;location;lat;lon;timestamp;P1;durP1;ratioP1;P2;durP2;ratioP2
46721;SDS011;32455;43.430;23.136;2024-01-25T00:00:56;1.00;;;0.90;;
46721;SDS011;32455;43.430;23.136;2024-01-25T00:03:41;0.77;;;0.68;;
46721;SDS011;32455;43.430;23.136;2024-01-25T00:06:26;0.60;;;0.50;;
46721;SDS011;32455;43.430;23.136;2024-01-25T00:09:12;1.42;;;0.85;;
46721;SDS011;32455;43.430;23.136;2024-01-25T00:11:56;0.50;;;0.50;;
46721;SDS011;32455;43.430;23.136;2024-01-25T00:14:41;0.77;;;0.70;;
46721;SDS011;32455;43.430;23.136;2024-01-25T00:17:27;0.55;;;0.50;;
46721;SDS011;32455;43.430;23.136;2024-01-25T00:20:13;0.60;;;0.50;;
46721;SDS011;32455;43.430;23.136;2024-01-25T00:22:58;0.63;;;0.63;;
46721;SDS011;32455;43.430;23.136;2024-01-25T00:25:44;1.25;;;0.80;;
46721;SDS011;32455;43.430;23.136;2024-01-25T00:28:29;0.60;;;0.50;;
46721;SDS011;32455;43.430;23.136;2024-01-25T00:31:14;0.47;;;0.40;;
46721;SDS011;32455;43.430;23.136;2024-01-25T00:34:00;0.63;;;0.40;;
46721;SDS011;32455;43.430;23.136;2024-01-25T00:36:47;0.93;;;0.50;;
46721;SDS011;32455;43.430;23.136;2024-01-25T00:39:32;0.60;;;0.60;;
46721;SDS011;32455;43.430;23.136;2024-01-25T00:42:18;0.82;;;0.40;;
46721;SDS011;32455;43.430;23.136;2024-01-25T00:45:08;1.20;;;0.80;;
46721;SDS011;32455;43.430;23.136;2024-01-25T00:47:54;0.50;;;0.50;;
46721;SDS011;32455;43.430;23.136;2024-01-25T00:50:40;1.55;;;0.60;;
46721;SDS011;32455;43.430;23.136;2024-01-25T00:53:25;0.50;;;0.50;;
46721;SDS011;32455;43.430;23.136;2024-01-25T00:56:11;1.38;;;0.73;;
46721;SDS011;32455;43.430;23.136;2024-01-25T00:58:56;0.52;;;0.43;;
46721;SDS011;32455;43.430;23.136;2024-01-25T01:01:42;0.70;;;0.60;;
46721;SDS011;32455;43.430;23.136;2024-01-25T01:04:32;1.85;;;0.70;;
46721;SDS011;32455;43.430;23.136;2024-01-25T01:07:17;0.82;;;0.57;;
46721;SDS011;32455;43.430;23.136;2024-01-25T01:10:03;1.02;;;0.60;;
46721;SDS011;32455;43.430;23.136;2024-01-25T01:12:48;0.68;;;0.68;;
46721;SDS011;32455;43.430;23.136;2024-01-25T01:15:34;0.60;;;0.60;;
46721;SDS011;32455;43.430;23.136;2024-01-25T01:18:19;0.52;;;0.50;;
46721;SDS011;32455;43.430;23.136;2024-01-25T01:21:04;0.68;;;0.45;;
46721;SDS011;32455;43.430;23.136;2024-01-25T01:23:50;0.70;;;0.60;;
46721;SDS011;32455;43.430;23.136;2024-01-25T01:26:35;0.73;;;0.45;;
46721;SDS011;32455;43.430;23.136;2024-01-25T01:29:21;0.93;;;0.60;;
46721;SDS011;32455;43.430;23.136;2024-01-25T01:32:06;0.85;;;0.63;;
46721;SDS011;32455;43.430;23.136;2024-01-25T01:34:52;0.50;;;0.40;;
46721;SDS011;32455;43.430;23.136;2024-01-25T01:37:38;1.17;;;0.70;;
46721;SDS011;32455;43.430;23.136;2024-01-25T01:40:23;0.88;;;0.57;;
46721;SDS011;32455;43.430;23.136;2024-01-25T01:43:17;0.38;;;0.38;;
46721;SDS011;32455;43.430;23.136;2024-01-25T01:46:04;0.90;;;0.60;;
46721;SDS011;32455;43.430;23.136;2024-01-25T01:48:58;0.52;;;0.50;;
46721;SDS011;32455;43.430;23.136;2024-01-25T01:51:43;1.65;;;0.70;;
46721;SDS011;32455;43.430;23.136;2024-01-25T01:54:29;1.42;;;0.55;;
46721;SDS011;32455;43.430;23.136;2024-01-25T01:57:15;0.50;;;0.50;;
46721;SDS011;32455;43.430;23.136;2024-01-25T02:00:01;0.82;;;0.60;;
46721;SDS011;32455;43.430;23.136;2024-01-25T02:02:49;0.63;;;0.63;;
46721;SDS011;32455;43.430;23.136;2024-01-25T02:05:35;0.65;;;0.63;;
46721;SDS011;32455;43.430;23.136;2024-01-25T02:08:20;1.10;;;0.70;;
46721;SDS011;32455;43.430;23.136;2024-01-25T02:11:04;1.65;;;0.75;;
46721;SDS011;32455;43.430;23.136;2024-01-25T02:13:49;2.15;;;0.70;;
46721;SDS011;32455;43.430;23.136;2024-01-25T02:16:34;0.75;;;0.70;;
46721;SDS011;32455;43.430;23.136;2024-01-25T02:19:20;0.70;;;0.70;;
46721;SDS011;32455;43.430;23.136;2024-01-25T02:22:05;1.98;;;0.85;;
46721;SDS011;32455;43.430;23.136;2024-01-25T02:24:51;0.70;;;0.68;;
46721;SDS011;32455;43.430;23.136;2024-01-25T02:27:36;0.80;;;0.60;;
46721;SDS011;32455;43.430;23.136;2024-01-25T02:30:23;1.17;;;0.70;;
46721;SDS011;32455;43.430;23.136;2024-01-25T02:33:09;1.25;;;0.55;;
46721;SDS011;32455;43.430;23.136;2024-01-25T02:35:54;1.20;;;0.60;;
46721;SDS011;32455;43.430;23.136;2024-01-25T02:38:39;1.95;;;0.70;;
46721;SDS011;32455;43.430;23.136;2024-01-25T02:41:24;1.17;;;0.80;;
46721;SDS011;32455;43.430;23.136;2024-01-25T02:44:10;1.42;;;0.80;;
46721;SDS011;32455;43.430;23.136;2024-01-25T02:46:56;1.25;;;1.00;;
46721;SDS011;32455;43.430;23.136;2024-01-25T02:49:41;2.42;;;0.90;;
46721;SDS011;32455;43.430;23.136;2024-01-25T02:52:27;1.70;;;0.77;;
46721;SDS011;32455;43.430;23.136;2024-01-25T02:55:12;1.30;;;0.60;;
46721;SDS011;32455;43.430;23.136;2024-01-25T02:57:57;1.30;;;0.73;;
46721;SDS011;32455;43.430;23.136;2024-01-25T03:00:43;1.95;;;0.73;;
46721;SDS011;32455;43.430;23.136;2024-01-25T03:03:28;1.48;;;0.85;;
46721;SDS011;32455;43.430;23.136;2024-01-25T03:06:14;3.15;;;1.38;;
46721;SDS011;32455;43.430;23.136;2024-01-25T03:08:59;1.05;;;0.60;;
46721;SDS011;32455;43.430;23.136;2024-01-25T03:11:44;2.92;;;1.73;;
46721;SDS011;32455;43.430;23.136;2024-01-25T03:14:30;9.70;;;5.05;;
46721;SDS011;32455;43.430;23.136;2024-01-25T03:17:15;1.65;;;1.20;;
46721;SDS011;32455;43.430;23.136;2024-01-25T03:20:00;4.05;;;1.02;;
46721;SDS011;32455;43.430;23.136;2024-01-25T03:22:46;3.22;;;1.35;;
46721;SDS011;32455;43.430;23.136;2024-01-25T03:25:31;2.83;;;1.27;;
46721;SDS011;32455;43.430;23.136;2024-01-25T03:28:16;3.15;;;1.50;;
46721;SDS011;32455;43.430;23.136;2024-01-25T03:31:03;2.55;;;1.00;;
46721;SDS011;32455;43.430;23.136;2024-01-25T03:33:48;3.70;;;2.10;;
46721;SDS011;32455;43.430;23.136;2024-01-25T03:36:33;5.03;;;3.00;;
46721;SDS011;32455;43.430;23.136;2024-01-25T03:39:20;2.00;;;1.27;;
46721;SDS011;32455;43.430;23.136;2024-01-25T03:42:06;2.08;;;1.48;;
46721;SDS011;32455;43.430;23.136;2024-01-25T03:44:52;3.67;;;2.08;;
46721;SDS011;32455;43.430;23.136;2024-01-25T03:47:37;4.05;;;1.40;;
46721;SDS011;32455;43.430;23.136;2024-01-25T03:50:22;2.13;;;1.00;;
46721;SDS011;32455;43.430;23.136;2024-01-25T03:53:07;3.05;;;1.52;;
46721;SDS011;32455;43.430;23.136;2024-01-25T03:55:52;2.95;;;1.60;;
46721;SDS011;32455;43.430;23.136;2024-01-25T03:58:37;4.05;;;1.20;;
46721;SDS011;32455;43.430;23.136;2024-01-25T04:01:23;2.03;;;1.40;;
46721;SDS011;32455;43.430;23.136;2024-01-25T04:04:08;3.97;;;1.38;;
46721;SDS011;32455;43.430;23.136;2024-01-25T04:06:55;3.20;;;1.25;;
46721;SDS011;32455;43.430;23.136;2024-01-25T04:09:41;4.15;;;1.33;;
46721;SDS011;32455;43.430;23.136;2024-01-25T04:12:26;2.50;;;1.20;;
46721;SDS011;32455;43.430;23.136;2024-01-25T04:15:12;5.38;;;1.90;;
46721;SDS011;32455;43.430;23.136;2024-01-25T04:17:57;3.13;;;1.85;;
46721;SDS011;32455;43.430;23.136;2024-01-25T04:20:43;4.07;;;1.67;;
46721;SDS011;32455;43.430;23.136;2024-01-25T04:23:29;4.35;;;1.65;;
46721;SDS011;32455;43.430;23.136;2024-01-25T04:26:15;4.43;;;2.15;;
46721;SDS011;32455;43.430;23.136;2024-01-25T04:29:04;4.03;;;1.45;;
46721;SDS011;32455;43.430;23.136;2024-01-25T04:31:50;2.97;;;1.83;;
46721;SDS011;32455;43.430;23.136;2024-01-25T04:34:36;6.05;;;1.73;;
46721;SDS011;32455;43.430;23.136;2024-01-25T04:37:22;4.63;;;1.88;;
46721;SDS011;32455;43.430;23.136;2024-01-25T04:40:07;5.45;;;2.08;;
46721;SDS011;32455;43.430;23.136;2024-01-25T04:42:53;4.50;;;1.98;;
46721;SDS011;32455;43.430;23.136;2024-01-25T04:45:39;3.10;;;1.75;;
46721;SDS011;32455;43.430;23.136;2024-01-25T04:48:25;11.38;;;2.38;;
46721;SDS011;32455;43.430;23.136;2024-01-25T04:51:14;4.63;;;1.95;;
46721;SDS011;32455;43.430;23.136;2024-01-25T04:54:03;7.22;;;3.10;;
46721;SDS011;32455;43.430;23.136;2024-01-25T04:56:48;3.83;;;1.60;;
46721;SDS011;32455;43.430;23.136;2024-01-25T04:59:33;5.97;;;1.88;;
46721;SDS011;32455;43.430;23.136;2024-01-25T05:02:19;5.13;;;1.70;;
46721;SDS011;32455;43.430;23.136;2024-01-25T05:05:04;8.52;;;2.35;;
46721;SDS011;32455;43.430;23.136;2024-01-25T05:07:49;5.75;;;1.70;;
46721;SDS011;32455;43.430;23.136;2024-01-25T05:10:35;6.10;;;1.77;;
46721;SDS011;32455;43.430;23.136;2024-01-25T05:13:20;5.70;;;2.63;;
46721;SDS011;32455;43.430;23.136;2024-01-25T05:16:06;3.35;;;1.80;;
46721;SDS011;32455;43.430;23.136;2024-01-25T05:18:51;6.72;;;2.35;;
46721;SDS011;32455;43.430;23.136;2024-01-25T05:21:36;3.03;;;1.50;;
46721;SDS011;32455;43.430;23.136;2024-01-25T05:24:21;5.25;;;1.90;;
46721;SDS011;32455;43.430;23.136;2024-01-25T05:27:07;5.82;;;2.08;;
46721;SDS011;32455;43.430;23.136;2024-01-25T05:29:52;4.10;;;1.60;;
46721;SDS011;32455;43.430;23.136;2024-01-25T05:32:37;6.63;;;2.10;;
46721;SDS011;32455;43.430;23.136;2024-01-25T05:35:23;5.55;;;1.60;;
46721;SDS011;32455;43.430;23.136;2024-01-25T05:38:07;5.03;;;1.80;;
46721;SDS011;32455;43.430;23.136;2024-01-25T05:40:53;3.58;;;1.75;;
46721;SDS011;32455;43.430;23.136;2024-01-25T05:43:38;5.00;;;2.17;;
46721;SDS011;32455;43.430;23.136;2024-01-25T05:46:23;5.75;;;2.08;;
46721;SDS011;32455;43.430;23.136;2024-01-25T05:49:09;6.10;;;2.30;;
46721;SDS011;32455;43.430;23.136;2024-01-25T05:51:54;5.00;;;2.25;;
46721;SDS011;32455;43.430;23.136;2024-01-25T05:54:40;9.95;;;2.38;;
46721;SDS011;32455;43.430;23.136;2024-01-25T05:57:25;3.75;;;1.90;;
46721;SDS011;32455;43.430;23.136;2024-01-25T06:00:11;9.13;;;2.97;;
46721;SDS011;32455;43.430;23.136;2024-01-25T06:02:58;6.38;;;2.80;;
46721;SDS011;32455;43.430;23.136;2024-01-25T06:05:43;5.93;;;2.58;;
46721;SDS011;32455;43.430;23.136;2024-01-25T06:08:29;5.78;;;1.80;;
46721;SDS011;32455;43.430;23.136;2024-01-25T06:11:14;7.18;;;2.20;;
46721;SDS011;32455;43.430;23.136;2024-01-25T06:14:00;7.65;;;2.75;;
46721;SDS011;32455;43.430;23.136;2024-01-25T06:16:46;10.80;;;3.47;;
46721;SDS011;32455;43.430;23.136;2024-01-25T06:19:31;8.50;;;3.13;;
46721;SDS011;32455;43.430;23.136;2024-01-25T06:22:18;9.32;;;5.10;;
46721;SDS011;32455;43.430;23.136;2024-01-25T06:25:03;13.32;;;5.47;;
46721;SDS011;32455;43.430;23.136;2024-01-25T06:27:49;15.23;;;7.50;;
46721;SDS011;32455;43.430;23.136;2024-01-25T06:30:34;7.72;;;3.28;;
46721;SDS011;32455;43.430;23.136;2024-01-25T06:33:20;7.43;;;3.33;;
46721;SDS011;32455;43.430;23.136;2024-01-25T06:36:05;7.20;;;2.63;;
46721;SDS011;32455;43.430;23.136;2024-01-25T06:38:50;6.65;;;2.90;;
46721;SDS011;32455;43.430;23.136;2024-01-25T06:41:36;9.13;;;2.50;;
46721;SDS011;32455;43.430;23.136;2024-01-25T06:44:21;7.95;;;2.95;;
46721;SDS011;32455;43.430;23.136;2024-01-25T06:47:06;4.93;;;2.63;;
46721;SDS011;32455;43.430;23.136;2024-01-25T06:49:52;8.93;;;2.42;;
46721;SDS011;32455;43.430;23.136;2024-01-25T06:52:37;12.18;;;4.82;;
46721;SDS011;32455;43.430;23.136;2024-01-25T06:55:23;11.65;;;3.67;;
46721;SDS011;32455;43.430;23.136;2024-01-25T06:58:08;17.00;;;7.70;;
46721;SDS011;32455;43.430;23.136;2024-01-25T07:00:53;9.38;;;4.93;;
46721;SDS011;32455;43.430;23.136;2024-01-25T07:03:38;6.97;;;4.22;;
46721;SDS011;32455;43.430;23.136;2024-01-25T07:06:24;8.40;;;3.60;;
46721;SDS011;32455;43.430;23.136;2024-01-25T07:09:11;8.30;;;3.35;;
46721;SDS011;32455;43.430;23.136;2024-01-25T07:11:56;9.93;;;3.25;;
46721;SDS011;32455;43.430;23.136;2024-01-25T07:14:42;6.07;;;2.85;;
46721;SDS011;32455;43.430;23.136;2024-01-25T07:17:27;10.75;;;3.85;;
46721;SDS011;32455;43.430;23.136;2024-01-25T07:20:12;6.35;;;2.97;;
46721;SDS011;32455;43.430;23.136;2024-01-25T07:22:58;9.35;;;3.25;;
46721;SDS011;32455;43.430;23.136;2024-01-25T07:25:43;6.60;;;4.22;;
46721;SDS011;32455;43.430;23.136;2024-01-25T07:28:29;9.90;;;3.58;;
46721;SDS011;32455;43.430;23.136;2024-01-25T07:31:14;8.95;;;3.35;;
46721;SDS011;32455;43.430;23.136;2024-01-25T07:33:59;8.98;;;2.70;;
46721;SDS011;32455;43.430;23.136;2024-01-25T07:36:45;8.13;;;2.70;;
46721;SDS011;32455;43.430;23.136;2024-01-25T07:39:30;7.63;;;2.95;;
46721;SDS011;32455;43.430;23.136;2024-01-25T07:42:16;9.00;;;3.63;;
46721;SDS011;32455;43.430;23.136;2024-01-25T07:45:03;8.63;;;3.60;;
46721;SDS011;32455;43.430;23.136;2024-01-25T07:47:49;5.72;;;2.30;;
46721;SDS011;32455;43.430;23.136;2024-01-25T07:50:34;10.35;;;3.10;;
46721;SDS011;32455;43.430;23.136;2024-01-25T07:53:19;7.88;;;3.08;;
46721;SDS011;32455;43.430;23.136;2024-01-25T07:56:07;10.63;;;3.03;;
46721;SDS011;32455;43.430;23.136;2024-01-25T07:58:53;11.18;;;3.17;;
46721;SDS011;32455;43.430;23.136;2024-01-25T08:01:38;8.93;;;2.97;;
46721;SDS011;32455;43.430;23.136;2024-01-25T08:04:24;9.45;;;3.72;;
46721;SDS011;32455;43.430;23.136;2024-01-25T08:07:10;8.70;;;3.22;;
46721;SDS011;32455;43.430;23.136;2024-01-25T08:09:55;9.98;;;3.67;;
46721;SDS011;32455;43.430;23.136;2024-01-25T08:12:43;5.95;;;2.60;;
46721;SDS011;32455;43.430;23.136;2024-01-25T08:15:29;6.72;;;2.83;;
46721;SDS011;32455;43.430;23.136;2024-01-25T08:18:14;8.90;;;3.33;;
46721;SDS011;32455;43.430;23.136;2024-01-25T08:20:59;14.43;;;5.43;;
46721;SDS011;32455;43.430;23.136;2024-01-25T08:23:45;9.85;;;4.25;;
46721;SDS011;32455;43.430;23.136;2024-01-25T08:26:30;8.55;;;4.38;;
46721;SDS011;32455;43.430;23.136;2024-01-25T08:29:16;7.05;;;3.10;;
46721;SDS011;32455;43.430;23.136;2024-01-25T08:32:01;7.93;;;2.90;;
46721;SDS011;32455;43.430;23.136;2024-01-25T08:34:46;9.55;;;3.58;;
46721;SDS011;32455;43.430;23.136;2024-01-25T08:37:31;12.65;;;4.35;;
46721;SDS011;32455;43.430;23.136;2024-01-25T08:40:17;7.18;;;3.45;;
46721;SDS011;32455;43.430;23.136;2024-01-25T08:43:03;11.02;;;3.03;;
46721;SDS011;32455;43.430;23.136;2024-01-25T08:45:49;8.57;;;4.22;;
46721;SDS011;32455;43.430;23.136;2024-01-25T08:48:35;10.07;;;5.40;;
46721;SDS011;32455;43.430;23.136;2024-01-25T08:51:29;10.68;;;5.93;;
46721;SDS011;32455;43.430;23.136;2024-01-25T08:54:14;6.55;;;3.90;;
46721;SDS011;32455;43.430;23.136;2024-01-25T08:57:00;8.43;;;2.97;;
46721;SDS011;32455;43.430;23.136;2024-01-25T08:59:44;8.68;;;3.25;;
46721;SDS011;32455;43.430;23.136;2024-01-25T09:02:29;5.18;;;2.15;;
46721;SDS011;32455;43.430;23.136;2024-01-25T09:05:16;7.40;;;2.50;;
46721;SDS011;32455;43.430;23.136;2024-01-25T09:08:02;9.45;;;3.47;;
46721;SDS011;32455;43.430;23.136;2024-01-25T09:10:48;8.02;;;3.20;;
46721;SDS011;32455;43.430;23.136;2024-01-25T09:13:33;6.50;;;2.38;;
46721;SDS011;32455;43.430;23.136;2024-01-25T09:16:18;8.25;;;2.65;;
46721;SDS011;32455;43.430;23.136;2024-01-25T09:19:03;7.15;;;2.58;;
46721;SDS011;32455;43.430;23.136;2024-01-25T09:21:49;9.48;;;2.97;;
46721;SDS011;32455;43.430;23.136;2024-01-25T09:24:34;5.90;;;2.70;;
46721;SDS011;32455;43.430;23.136;2024-01-25T09:27:20;7.50;;;2.53;;
46721;SDS011;32455;43.430;23.136;2024-01-25T09:30:06;6.78;;;3.10;;
46721;SDS011;32455;43.430;23.136;2024-01-25T09:32:52;7.15;;;2.53;;
46721;SDS011;32455;43.430;23.136;2024-01-25T09:35:37;6.90;;;2.33;;
46721;SDS011;32455;43.430;23.136;2024-01-25T09:38:23;5.78;;;2.53;;
46721;SDS011;32455;43.430;23.136;2024-01-25T09:41:08;5.95;;;2.15;;
46721;SDS011;32455;43.430;23.136;2024-01-25T09:43:53;6.63;;;2.50;;
46721;SDS011;32455;43.430;23.136;2024-01-25T09:46:39;5.18;;;2.50;;
46721;SDS011;32455;43.430;23.136;2024-01-25T09:49:27;13.02;;;3.53;;
46721;SDS011;32455;43.430;23.136;2024-01-25T09:52:13;8.98;;;3.25;;
46721;SDS011;32455;43.430;23.136;2024-01-25T09:54:58;7.95;;;2.83;;
46721;SDS011;32455;43.430;23.136;2024-01-25T09:57:46;10.43;;;3.03;;
46721;SDS011;32455;43.430;23.136;2024-01-25T10:00:38;6.47;;;2.80;;
46721;SDS011;32455;43.430;23.136;2024-01-25T10:03:23;7.40;;;3.00;;
46721;SDS011;32455;43.430;23.136;2024-01-25T10:06:08;7.63;;;3.15;;
46721;SDS011;32455;43.430;23.136;2024-01-25T10:08:55;8.55;;;3.67;;
46721;SDS011;32455;43.430;23.136;2024-01-25T10:11:41;5.70;;;2.90;;
46721;SDS011;32455;43.430;23.136;2024-01-25T10:14:26;5.97;;;2.30;;
46721;SDS011;32455;43.430;23.136;2024-01-25T10:17:12;7.85;;;3.00;;
46721;SDS011;32455;43.430;23.136;2024-01-25T10:19:57;5.82;;;2.47;;
46721;SDS011;32455;43.430;23.136;2024-01-25T10:22:43;6.93;;;2.30;;
46721;SDS011;32455;43.430;23.136;2024-01-25T10:25:29;8.68;;;2.67;;
46721;SDS011;32455;43.430;23.136;2024-01-25T10:28:14;8.27;;;2.53;;
46721;SDS011;32455;43.430;23.136;2024-01-25T10:31:02;8.68;;;3.05;;
46721;SDS011;32455;43.430;23.136;2024-01-25T10:33:52;7.78;;;2.45;;
46721;SDS011;32455;43.430;23.136;2024-01-25T10:36:41;6.60;;;2.90;;
46721;SDS011;32455;43.430;23.136;2024-01-25T10:39:28;10.30;;;3.30;;
46721;SDS011;32455;43.430;23.136;2024-01-25T10:42:14;7.13;;;2.70;;
46721;SDS011;32455;43.430;23.136;2024-01-25T10:45:00;8.07;;;3.08;;
46721;SDS011;32455;43.430;23.136;2024-01-25T10:47:48;6.20;;;3.33;;
46721;SDS011;32455;43.430;23.136;2024-01-25T10:50:34;6.72;;;2.38;;
46721;SDS011;32455;43.430;23.136;2024-01-25T10:53:18;9.27;;;3.05;;
46721;SDS011;32455;43.430;23.136;2024-01-25T10:56:04;9.75;;;3.58;;
46721;SDS011;32455;43.430;23.136;2024-01-25T10:58:50;9.38;;;3.22;;
46721;SDS011;32455;43.430;23.136;2024-01-25T11:01:36;6.50;;;2.67;;
46721;SDS011;32455;43.430;23.136;2024-01-25T11:04:21;9.82;;;4.72;;
46721;SDS011;32455;43.430;23.136;2024-01-25T11:07:07;8.10;;;2.80;;
46721;SDS011;32455;43.430;23.136;2024-01-25T11:09:56;7.57;;;3.10;;
46721;SDS011;32455;43.430;23.136;2024-01-25T11:13:00;6.93;;;2.88;;
46721;SDS011;32455;43.430;23.136;2024-01-25T11:15:47;9.23;;;3.38;;
46721;SDS011;32455;43.430;23.136;2024-01-25T11:18:33;7.88;;;3.13;;
46721;SDS011;32455;43.430;23.136;2024-01-25T11:22:02;9.48;;;3.13;;
46721;SDS011;32455;43.430;23.136;2024-01-25T11:24:31;9.88;;;3.53;;
46721;SDS011;32455;43.430;23.136;2024-01-25T11:27:24;9.25;;;3.42;;
46721;SDS011;32455;43.430;23.136;2024-01-25T11:30:09;10.10;;;3.95;;
46721;SDS011;32455;43.430;23.136;2024-01-25T11:32:56;9.65;;;3.22;;
46721;SDS011;32455;43.430;23.136;2024-01-25T11:35:42;8.13;;;2.80;;
46721;SDS011;32455;43.430;23.136;2024-01-25T11:38:28;8.23;;;2.65;;
46721;SDS011;32455;43.430;23.136;2024-01-25T11:41:13;7.35;;;3.00;;
46721;SDS011;32455;43.430;23.136;2024-01-25T11:43:58;8.30;;;3.85;;
46721;SDS011;32455;43.430;23.136;2024-01-25T11:46:44;9.32;;;3.38;;
46721;SDS011;32455;43.430;23.136;2024-01-25T11:49:29;8.30;;;2.60;;
46721;SDS011;32455;43.430;23.136;2024-01-25T11:52:15;9.07;;;3.00;;
46721;SDS011;32455;43.430;23.136;2024-01-25T11:55:04;7.63;;;3.60;;
46721;SDS011;32455;43.430;23.136;2024-01-25T11:57:50;7.43;;;3.35;;
46721;SDS011;32455;43.430;23.136;2024-01-25T12:00:36;7.00;;;2.65;;
46721;SDS011;32455;43.430;23.136;2024-01-25T12:03:22;8.82;;;3.25;;
46721;SDS011;32455;43.430;23.136;2024-01-25T12:06:07;6.45;;;2.67;;
46721;SDS011;32455;43.430;23.136;2024-01-25T12:09:05;8.23;;;2.85;;
46721;SDS011;32455;43.430;23.136;2024-01-25T12:11:55;8.18;;;2.75;;
46721;SDS011;32455;43.430;23.136;2024-01-25T12:14:40;10.50;;;2.85;;
46721;SDS011;32455;43.430;23.136;2024-01-25T12:17:29;7.93;;;2.47;;
46721;SDS011;32455;43.430;23.136;2024-01-25T12:20:15;6.10;;;2.70;;
46721;SDS011;32455;43.430;23.136;2024-01-25T12:23:02;6.57;;;2.70;;
46721;SDS011;32455;43.430;23.136;2024-01-25T12:25:47;8.52;;;3.38;;
46721;SDS011;32455;43.430;23.136;2024-01-25T12:28:32;7.90;;;3.10;;
46721;SDS011;32455;43.430;23.136;2024-01-25T12:31:18;7.82;;;2.50;;
46721;SDS011;32455;43.430;23.136;2024-01-25T12:34:03;8.25;;;2.67;;
46721;SDS011;32455;43.430;23.136;2024-01-25T12:36:58;4.97;;;2.40;;
46721;SDS011;32455;43.430;23.136;2024-01-25T12:39:44;6.10;;;2.35;;
46721;SDS011;32455;43.430;23.136;2024-01-25T12:42:29;10.23;;;2.97;;
46721;SDS011;32455;43.430;23.136;2024-01-25T12:45:14;7.72;;;2.72;;
46721;SDS011;32455;43.430;23.136;2024-01-25T12:48:00;6.40;;;2.53;;
46721;SDS011;32455;43.430;23.136;2024-01-25T12:50:47;8.95;;;3.10;;
46721;SDS011;32455;43.430;23.136;2024-01-25T12:53:33;9.65;;;3.40;;
46721;SDS011;32455;43.430;23.136;2024-01-25T12:56:18;11.10;;;3.33;;
46721;SDS011;32455;43.430;23.136;2024-01-25T12:59:03;8.57;;;2.58;;
46721;SDS011;32455;43.430;23.136;2024-01-25T13:01:48;9.57;;;2.42;;
46721;SDS011;32455;43.430;23.136;2024-01-25T13:04:34;5.97;;;2.40;;
46721;SDS011;32455;43.430;23.136;2024-01-25T13:07:19;7.82;;;3.03;;
46721;SDS011;32455;43.430;23.136;2024-01-25T13:10:05;11.63;;;2.72;;
46721;SDS011;32455;43.430;23.136;2024-01-25T13:12:51;10.50;;;2.70;;
46721;SDS011;32455;43.430;23.136;2024-01-25T13:15:36;8.68;;;3.13;;
46721;SDS011;32455;43.430;23.136;2024-01-25T13:18:22;13.45;;;4.03;;
46721;SDS011;32455;43.430;23.136;2024-01-25T13:21:07;6.65;;;3.03;;
46721;SDS011;32455;43.430;23.136;2024-01-25T13:23:52;12.23;;;3.13;;
46721;SDS011;32455;43.430;23.136;2024-01-25T13:26:37;5.57;;;2.20;;
46721;SDS011;32455;43.430;23.136;2024-01-25T13:29:22;10.02;;;3.42;;
46721;SDS011;32455;43.430;23.136;2024-01-25T13:32:07;10.82;;;3.03;;
46721;SDS011;32455;43.430;23.136;2024-01-25T13:34:53;7.10;;;2.60;;
46721;SDS011;32455;43.430;23.136;2024-01-25T13:37:39;7.25;;;2.60;;
46721;SDS011;32455;43.430;23.136;2024-01-25T13:40:24;6.40;;;2.65;;
46721;SDS011;32455;43.430;23.136;2024-01-25T13:43:10;7.53;;;2.50;;
46721;SDS011;32455;43.430;23.136;2024-01-25T13:45:56;9.85;;;3.33;;
46721;SDS011;32455;43.430;23.136;2024-01-25T13:48:41;6.55;;;2.22;;
46721;SDS011;32455;43.430;23.136;2024-01-25T13:51:27;6.05;;;2.33;;
46721;SDS011;32455;43.430;23.136;2024-01-25T13:54:12;8.82;;;2.95;;
46721;SDS011;32455;43.430;23.136;2024-01-25T13:56:57;7.65;;;3.10;;
46721;SDS011;32455;43.430;23.136;2024-01-25T13:59:42;7.20;;;2.92;;
46721;SDS011;32455;43.430;23.136;2024-01-25T14:02:28;11.50;;;3.53;;
46721;SDS011;32455;43.430;23.136;2024-01-25T14:05:13;11.20;;;3.67;;
46721;SDS011;32455;43.430;23.136;2024-01-25T14:07:59;5.03;;;2.20;;
46721;SDS011;32455;43.430;23.136;2024-01-25T14:10:44;10.13;;;3.20;;
46721;SDS011;32455;43.430;23.136;2024-01-25T14:13:29;8.35;;;2.97;;
46721;SDS011;32455;43.430;23.136;2024-01-25T14:16:14;10.63;;;4.32;;
46721;SDS011;32455;43.430;23.136;2024-01-25T14:19:01;9.15;;;3.05;;
46721;SDS011;32455;43.430;23.136;2024-01-25T14:21:48;11.70;;;3.17;;
46721;SDS011;32455;43.430;23.136;2024-01-25T14:24:35;6.35;;;2.85;;
46721;SDS011;32455;43.430;23.136;2024-01-25T14:27:20;6.70;;;2.38;;
46721;SDS011;32455;43.430;23.136;2024-01-25T14:30:06;6.88;;;2.70;;
46721;SDS011;32455;43.430;23.136;2024-01-25T14:32:54;7.53;;;2.60;;
46721;SDS011;32455;43.430;23.136;2024-01-25T14:35:41;8.50;;;3.33;;
46721;SDS011;32455;43.430;23.136;2024-01-25T14:38:27;7.97;;;2.67;;
46721;SDS011;32455;43.430;23.136;2024-01-25T14:41:12;9.70;;;2.50;;
46721;SDS011;32455;43.430;23.136;2024-01-25T14:43:59;11.85;;;3.60;;
46721;SDS011;32455;43.430;23.136;2024-01-25T14:46:44;7.78;;;3.25;;
46721;SDS011;32455;43.430;23.136;2024-01-25T14:49:30;5.78;;;2.40;;
46721;SDS011;32455;43.430;23.136;2024-01-25T14:52:15;11.15;;;4.03;;
46721;SDS011;32455;43.430;23.136;2024-01-25T14:55:04;7.38;;;3.00;;
46721;SDS011;32455;43.430;23.136;2024-01-25T14:57:49;7.47;;;2.70;;
46721;SDS011;32455;43.430;23.136;2024-01-25T15:00:35;10.10;;;3.17;;
46721;SDS011;32455;43.430;23.136;2024-01-25T15:03:20;9.52;;;2.88;;
46721;SDS011;32455;43.430;23.136;2024-01-25T15:06:05;6.03;;;2.67;;
46721;SDS011;32455;43.430;23.136;2024-01-25T15:08:51;7.00;;;2.35;;
46721;SDS011;32455;43.430;23.136;2024-01-25T15:11:37;8.90;;;2.63;;
46721;SDS011;32455;43.430;23.136;2024-01-25T15:14:21;7.70;;;3.00;;
46721;SDS011;32455;43.430;23.136;2024-01-25T15:17:07;7.55;;;2.50;;
46721;SDS011;32455;43.430;23.136;2024-01-25T15:19:52;11.00;;;3.70;;
46721;SDS011;32455;43.430;23.136;2024-01-25T15:22:38;9.93;;;2.90;;
46721;SDS011;32455;43.430;23.136;2024-01-25T15:25:24;9.27;;;3.28;;
46721;SDS011;32455;43.430;23.136;2024-01-25T15:28:09;7.25;;;2.63;;
46721;SDS011;32455;43.430;23.136;2024-01-25T15:30:55;12.18;;;3.70;;
46721;SDS011;32455;43.430;23.136;2024-01-25T15:33:40;10.45;;;3.80;;
46721;SDS011;32455;43.430;23.136;2024-01-25T15:36:25;9.95;;;3.17;;
46721;SDS011;32455;43.430;23.136;2024-01-25T15:39:11;7.30;;;2.90;;
46721;SDS011;32455;43.430;23.136;2024-01-25T15:41:56;7.32;;;3.00;;
46721;SDS011;32455;43.430;23.136;2024-01-25T15:44:41;6.07;;;2.67;;
46721;SDS011;32455;43.430;23.136;2024-01-25T15:47:26;11.18;;;3.15;;
46721;SDS011;32455;43.430;23.136;2024-01-25T15:50:12;11.27;;;4.13;;
46721;SDS011;32455;43.430;23.136;2024-01-25T15:52:57;7.55;;;3.42;;
46721;SDS011;32455;43.430;23.136;2024-01-25T15:55:42;10.82;;;3.28;;
46721;SDS011;32455;43.430;23.136;2024-01-25T15:58:28;8.43;;;3.15;;
46721;SDS011;32455;43.430;23.136;2024-01-25T16:01:14;10.32;;;3.92;;
46721;SDS011;32455;43.430;23.136;2024-01-25T16:04:00;10.45;;;4.00;;
46721;SDS011;32455;43.430;23.136;2024-01-25T16:06:45;14.38;;;4.57;;
46721;SDS011;32455;43.430;23.136;2024-01-25T16:09:30;11.07;;;3.95;;
46721;SDS011;32455;43.430;23.136;2024-01-25T16:12:15;10.63;;;3.55;;
46721;SDS011;32455;43.430;23.136;2024-01-25T16:15:01;9.07;;;3.45;;
46721;SDS011;32455;43.430;23.136;2024-01-25T16:17:47;10.23;;;4.03;;
46721;SDS011;32455;43.430;23.136;2024-01-25T16:20:32;9.43;;;4.25;;
46721;SDS011;32455;43.430;23.136;2024-01-25T16:23:18;9.52;;;3.60;;